Old Mystic, CT (06372)

6:25 AM EST on February 07, 2016 (GMT -0500)
Mystic | | Change Station
CLOSE
Current Station
Personal Weather Station
Location: Groton, CT
Elevation: 154 ft
Nearby Weather Stations

Elev 154 ft 41.36 °N, 71.97 °W | Updated 8 seconds ago

Clear
Clear
29.5 °F
Feels Like 30 °F
N
0.0
Wind Variable Wind from SW
Gusts 0.0 mph

Today
High -- | Low -- °F
--% Chance of Precip.
Yesterday
High -- | Low -- °F
Precip. -- in
Pressure 30.18 in
Visibility 9.0 miles
Clouds Clear
Windchill 30 °F
Dew Point 26 °F
Humidity 87%
Rainfall 0.00 in
Snow Depth Not available.
6:53 AM 5:11 PM
Waning Crescent, 2% visible
METAR KGON 071056Z AUTO 04004KT 9SM CLR M03/M04 A3018 RMK AO2 SLP219 I1001 T10331039 $
Pressure 30.18 in
Visibility 9.0 miles
Clouds Clear
Windchill 30 °F
Dew Point 26 °F
Humidity 87%
Rainfall 0.00 in
Snow Depth Not available.
6:53 AM 5:11 PM
Waning Crescent, 2% visible
METAR KGON 071056Z AUTO 04004KT 9SM CLR M03/M04 A3018 RMK AO2 SLP219 I1001 T10331039 $

10-Day Weather Forecast

Almanac

Astronomy

Feb. 07, 2016 Rise Set
Actual Time
Civil Twilight
Nautical Twilight
Astronomical Twilight
Moon
Length of Visible Light
Length of Day
Tomorrow will be .
, % of the Moon is Illuminated

Today's Extremes

State Highs State Lows

Community

WunderPhotos

Upload Photos

1,891,170 photos uploaded!

WunderBlog® & News

Nearby

Air Quality

  Air Quality AQ Index Pollutant
Not available.

Snow Depth

Station Depth Elevation

Earthquake Activity

City Distance Mag. Time & Date
Minimum magnitude displayed is 2.5.

Coastal Water Temperatures

Place Temperature

Stations

Nearby Weather Stations

Station Location Temp. Windchill Dew Point Humidity Wind Precip. Elev Updated Type
                   

Watches & Warnings

There are currently no watches in effect.